createdAt,value
2019-03-30T00:01:18.416Z,340.10
2019-03-30T00:03:47.196Z,281.60
2019-03-30T00:06:15.759Z,336.02
2019-03-30T00:08:44.228Z,312.27
2019-03-30T00:11:12.759Z,303.00
2019-03-30T00:13:41.269Z,307.40
2019-03-30T00:16:09.834Z,315.50
2019-03-30T00:18:41.231Z,305.27
2019-03-30T00:21:08.579Z,316.42
2019-03-30T00:23:37.045Z,302.30
2019-03-30T00:26:05.585Z,307.85
2019-03-30T00:28:34.079Z,309.48
2019-03-30T00:31:02.545Z,309.00
2019-03-30T00:33:31.012Z,350.40
2019-03-30T00:35:59.736Z,343.20
2019-03-30T00:38:28.213Z,354.47
2019-03-30T00:40:56.684Z,351.55
2019-03-30T00:43:25.243Z,356.50
2019-03-30T00:45:53.723Z,367.95
2019-03-30T00:48:22.260Z,365.25
2019-03-30T00:50:50.757Z,355.40
2019-03-30T00:53:19.239Z,357.98
2019-03-30T00:55:47.779Z,344.60
2019-03-30T00:58:16.329Z,339.35
2019-03-30T01:00:44.793Z,341.33
2019-03-30T01:03:13.267Z,348.02
2019-03-30T01:05:41.838Z,341.52
2019-03-30T01:08:10.377Z,326.73
2019-03-30T01:10:38.840Z,335.95
2019-03-30T01:13:07.346Z,323.65
2019-03-30T01:15:35.822Z,347.67
2019-03-30T01:18:04.496Z,358.55
2019-03-30T01:20:32.997Z,370.97
2019-03-30T01:23:01.476Z,345.42
2019-03-30T01:25:30.017Z,350.98
2019-03-30T01:27:58.580Z,352.10
2019-03-30T01:30:27.118Z,361.85
2019-03-30T01:32:55.576Z,327.00
2019-03-30T01:35:24.339Z,315.10
2019-03-30T01:37:52.919Z,341.83
2019-03-30T01:40:21.379Z,344.50
2019-03-30T01:42:49.883Z,335.77
2019-03-30T01:45:18.557Z,335.40
2019-03-30T01:47:47.244Z,328.25
2019-03-30T01:50:17.555Z,331.07
2019-03-30T01:52:46.388Z,308.00
2019-03-30T01:55:14.851Z,334.30
2019-03-30T01:57:43.354Z,343.77
2019-03-30T02:00:12.727Z,356.85
2019-03-30T02:02:41.264Z,353.00
2019-03-30T02:05:10.807Z,348.40
2019-03-30T02:07:39.265Z,347.80
2019-03-30T02:10:08.763Z,352.25
2019-03-30T02:12:37.598Z,364.25
2019-03-30T02:15:06.813Z,369.82
2019-03-30T02:17:35.275Z,354.32
2019-03-30T02:20:06.513Z,364.80
2019-03-30T02:22:35.000Z,340.35
2019-03-30T02:25:04.645Z,341.68
2019-03-30T02:30:00.820Z,346.80
2019-03-30T02:32:29.290Z,355.60
2019-03-30T02:34:57.800Z,335.50
2019-03-30T02:37:26.336Z,340.00
2019-03-30T02:39:54.951Z,333.85
2019-03-30T02:42:23.450Z,346.95
2019-03-30T02:44:51.913Z,342.57
2019-03-30T02:47:20.650Z,348.60
2019-03-30T02:49:49.147Z,343.47
2019-03-30T02:52:17.692Z,335.52
2019-03-30T02:54:46.166Z,319.00
2019-03-30T02:57:14.837Z,323.57
2019-03-30T02:59:43.381Z,332.87
2019-03-30T03:02:11.931Z,327.43
2019-03-30T03:04:40.505Z,327.38
2019-03-30T03:07:09.037Z,347.05
2019-03-30T03:09:37.650Z,354.93
2019-03-30T03:12:06.212Z,384.50
2019-03-30T03:14:34.674Z,394.43
2019-03-30T03:17:03.150Z,364.77
2019-03-30T03:19:31.718Z,431.82
2019-03-30T03:22:00.271Z,412.40
2019-03-30T03:24:28.818Z,396.32
2019-03-30T03:26:57.396Z,415.38
2019-03-30T03:29:25.950Z,400.92
2019-03-30T03:31:54.502Z,430.35
2019-03-30T03:34:23.078Z,372.50
2019-03-30T03:36:51.637Z,357.20
2019-03-30T03:39:20.165Z,384.60
2019-03-30T03:41:49.473Z,385.20
2019-03-30T03:44:18.008Z,388.65
2019-03-30T03:46:46.545Z,367.27
2019-03-30T03:49:15.123Z,366.57
2019-03-30T03:51:44.498Z,342.23
2019-03-30T03:54:12.965Z,330.70
2019-03-30T03:56:41.712Z,347.23
2019-03-30T03:59:11.520Z,356.60
2019-03-30T04:01:41.439Z,342.35
2019-03-30T04:04:12.619Z,337.30
2019-03-30T04:06:43.580Z,334.50
2019-03-30T04:09:13.569Z,330.07
2019-03-30T04:11:43.671Z,350.60
2019-03-30T04:14:13.866Z,336.35
2019-03-30T04:16:42.470Z,348.10
2019-03-30T04:19:11.110Z,346.25
2019-03-30T04:21:44.105Z,348.25
2019-03-30T04:24:09.847Z,345.95
2019-03-30T04:26:38.432Z,368.50
2019-03-30T04:29:06.967Z,407.08
2019-03-30T04:31:35.516Z,382.12
2019-03-30T04:34:04.088Z,373.82
2019-03-30T04:36:32.638Z,374.27
2019-03-30T04:39:01.248Z,371.50
2019-03-30T04:41:29.813Z,371.20
2019-03-30T04:43:58.466Z,362.02
2019-03-30T04:46:26.933Z,353.42
2019-03-30T04:48:55.501Z,363.35
2019-03-30T04:51:23.959Z,340.60
2019-03-30T04:53:52.495Z,337.05
2019-03-30T04:56:20.993Z,324.35
2019-03-30T04:58:49.461Z,336.95
2019-03-30T05:01:17.929Z,344.80
2019-03-30T05:03:46.504Z,352.25
2019-03-30T05:06:15.043Z,344.30
2019-03-30T05:08:43.507Z,333.40
2019-03-30T05:11:12.077Z,347.60
2019-03-30T05:13:40.622Z,335.73
2019-03-30T05:16:09.083Z,329.07
2019-03-30T05:18:37.604Z,320.27
2019-03-30T05:21:06.073Z,368.48
2019-03-30T05:23:34.620Z,342.13
2019-03-30T05:26:03.308Z,347.30
2019-03-30T05:28:31.844Z,329.17
2019-03-30T05:31:00.308Z,351.00
2019-03-30T05:33:28.817Z,354.07
2019-03-30T05:35:57.348Z,336.90
2019-03-30T05:38:25.813Z,355.55
2019-03-30T05:40:54.317Z,353.25
2019-03-30T05:43:22.844Z,356.35
2019-03-30T05:45:51.773Z,350.07
2019-03-30T05:48:20.278Z,376.77
2019-03-30T05:50:48.818Z,357.65
2019-03-30T05:53:17.356Z,363.77
2019-03-30T05:55:45.924Z,365.45
2019-03-30T05:58:14.397Z,357.48
2019-03-30T06:00:42.869Z,340.50
2019-03-30T06:03:11.444Z,327.93
2019-03-30T06:05:39.909Z,328.92
2019-03-30T06:08:08.447Z,331.95
2019-03-30T06:10:38.753Z,320.85
2019-03-30T06:13:07.220Z,334.98
2019-03-30T06:15:35.761Z,348.20
2019-03-30T06:18:05.315Z,328.00
2019-03-30T06:23:01.559Z,319.43
2019-03-30T06:25:30.144Z,329.63
2019-03-30T06:27:58.674Z,321.40
2019-03-30T06:30:27.780Z,337.40
2019-03-30T06:32:56.313Z,319.62
2019-03-30T06:35:24.865Z,309.00
2019-03-30T06:37:53.394Z,314.63
2019-03-30T06:40:21.931Z,302.70
2019-03-30T06:42:50.471Z,302.00
2019-03-30T06:45:19.021Z,292.30
2019-03-30T06:47:47.850Z,289.68
2019-03-30T06:50:16.560Z,294.57
2019-03-30T06:52:56.831Z,222.82
2019-03-30T06:55:15.326Z,211.95
2019-03-30T06:57:43.927Z,227.87
2019-03-30T07:00:14.255Z,238.95
2019-03-30T07:02:43.421Z,222.63
2019-03-30T07:05:12.528Z,237.08
2019-03-30T07:07:44.073Z,217.97
2019-03-30T07:10:14.289Z,214.75
2019-03-30T07:12:44.022Z,213.12
2019-03-30T07:17:43.353Z,194.15
2019-03-30T07:20:14.964Z,184.43
2019-03-30T07:22:43.596Z,184.18
2019-03-30T07:25:12.236Z,192.53
2019-03-30T07:27:40.705Z,181.02
2019-03-30T07:30:09.304Z,177.87
2019-03-30T07:32:37.880Z,187.10
2019-03-30T07:35:07.484Z,189.72
2019-03-30T07:37:35.952Z,175.75
2019-03-30T07:40:06.301Z,163.82
2019-03-30T07:42:34.833Z,159.93
2019-03-30T07:45:04.544Z,159.52
2019-03-30T07:50:01.202Z,164.47
2019-03-30T07:52:29.818Z,164.50
2019-03-30T07:54:58.326Z,161.95
2019-03-30T07:57:26.885Z,166.80
2019-03-30T07:59:55.360Z,147.17
2019-03-30T08:02:23.888Z,147.13
2019-03-30T08:04:52.502Z,144.85
2019-03-30T08:07:21.047Z,142.82
2019-03-30T08:09:49.640Z,150.90
2019-03-30T08:12:18.344Z,148.75
2019-03-30T08:14:46.878Z,148.17
2019-03-30T08:17:15.921Z,145.80
2019-03-30T08:19:44.497Z,140.12
2019-03-30T08:22:12.985Z,122.90
2019-03-30T08:24:41.650Z,128.47
2019-03-30T08:27:10.178Z,129.87
2019-03-30T08:29:38.655Z,99.62
2019-03-30T08:32:07.218Z,93.47
2019-03-30T08:34:35.702Z,92.90
2019-03-30T08:37:04.316Z,93.78
2019-03-30T08:39:33.213Z,95.10
2019-03-30T08:42:01.757Z,91.15
2019-03-30T08:44:32.897Z,76.57
2019-03-30T08:47:01.475Z,82.40
2019-03-30T08:49:29.951Z,67.32
2019-03-30T08:52:00.165Z,61.53
2019-03-30T08:54:32.003Z,72.08
2019-03-30T08:57:00.531Z,67.78
2019-03-30T08:59:29.101Z,69.03
2019-03-30T09:01:57.665Z,71.75
2019-03-30T09:04:26.132Z,65.72
2019-03-30T09:06:54.680Z,64.00
2019-03-30T09:09:23.189Z,59.90
2019-03-30T09:11:51.732Z,60.00
2019-03-30T09:14:21.208Z,62.73
2019-03-30T09:16:49.712Z,64.47
2019-03-30T09:19:18.261Z,69.47
2019-03-30T09:21:46.801Z,71.25
2019-03-30T09:24:15.504Z,74.12
2019-03-30T09:26:44.718Z,69.80
2019-03-30T09:29:13.257Z,76.02
2019-03-30T09:31:41.881Z,76.25
2019-03-30T09:34:10.425Z,76.80
2019-03-30T09:36:39.048Z,82.12
2019-03-30T09:39:07.710Z,79.80
2019-03-30T09:41:36.244Z,84.85
2019-03-30T09:44:06.388Z,78.37
2019-03-30T09:46:34.901Z,73.45
2019-03-30T09:49:06.516Z,70.97
2019-03-30T09:51:34.983Z,73.30
2019-03-30T09:54:03.845Z,77.12
2019-03-30T09:56:32.385Z,77.20
2019-03-30T09:59:00.854Z,74.77
2019-03-30T10:01:29.454Z,67.78
2019-03-30T10:03:57.984Z,59.15
2019-03-30T10:06:34.184Z,51.02
2019-03-30T10:08:56.698Z,55.92
2019-03-30T10:11:25.265Z,58.63
2019-03-30T10:13:53.843Z,56.05
2019-03-30T10:16:22.358Z,49.18
2019-03-30T10:18:50.903Z,55.50
2019-03-30T10:21:19.370Z,52.62
2019-03-30T10:23:47.947Z,50.70
2019-03-30T10:26:16.414Z,50.33
2019-03-30T10:28:47.088Z,38.20
2019-03-30T10:31:16.412Z,33.33
2019-03-30T10:33:44.886Z,32.65
2019-03-30T10:36:13.436Z,41.13
2019-03-30T10:38:41.958Z,40.33
2019-03-30T10:41:10.490Z,37.93
2019-03-30T10:43:39.029Z,40.78
2019-03-30T10:46:07.641Z,38.38
2019-03-30T10:48:36.162Z,41.75
2019-03-30T10:51:04.632Z,42.10
2019-03-30T10:53:33.135Z,43.02
2019-03-30T10:56:02.076Z,40.40
2019-03-30T10:58:30.643Z,40.78
2019-03-30T11:00:59.395Z,38.93
2019-03-30T11:03:27.859Z,38.60
2019-03-30T11:05:56.407Z,39.78
2019-03-30T11:08:24.992Z,36.55
2019-03-30T11:10:53.454Z,41.28
2019-03-30T11:13:21.924Z,37.85
2019-03-30T11:15:50.565Z,38.23
2019-03-30T11:18:19.034Z,39.23
2019-03-30T11:20:47.599Z,36.85
2019-03-30T11:23:16.243Z,34.20
2019-03-30T11:25:44.797Z,32.90
2019-03-30T11:28:13.313Z,31.52
2019-03-30T11:30:41.868Z,34.98
2019-03-30T11:33:10.513Z,35.45
2019-03-30T11:35:39.061Z,39.58
2019-03-30T11:38:13.207Z,31.27
2019-03-30T11:40:46.243Z,33.45
2019-03-30T11:43:14.949Z,36.40
2019-03-30T11:45:43.518Z,35.00
2019-03-30T11:48:12.095Z,37.63
2019-03-30T11:50:40.662Z,39.23
2019-03-30T11:53:12.144Z,35.50
2019-03-30T11:55:40.705Z,36.15
2019-03-30T11:58:10.276Z,35.33
2019-03-30T12:03:06.707Z,31.02
2019-03-30T12:05:35.232Z,33.97
2019-03-30T12:08:05.684Z,36.00
2019-03-30T12:10:34.741Z,34.63
2019-03-30T12:13:03.289Z,34.20
2019-03-30T12:15:36.809Z,32.93
2019-03-30T12:18:05.626Z,36.05
2019-03-30T12:21:07.335Z,34.60
2019-03-30T12:26:30.639Z,34.13
2019-03-30T12:28:59.273Z,39.03
2019-03-30T12:31:31.162Z,32.13
2019-03-30T12:34:12.929Z,30.57
2019-03-30T12:36:40.182Z,31.55
2019-03-30T12:39:09.802Z,31.52
2019-03-30T12:41:38.489Z,31.65
2019-03-30T12:44:07.064Z,32.73
2019-03-30T12:46:35.770Z,33.15
2019-03-30T12:49:25.843Z,37.15
2019-03-30T12:51:54.343Z,36.57
2019-03-30T12:54:24.551Z,33.40
2019-03-30T12:56:53.100Z,35.73
2019-03-30T12:59:22.264Z,37.95
2019-03-30T13:01:51.889Z,34.23
2019-03-30T13:04:22.180Z,31.93
2019-03-30T13:06:51.177Z,33.45
2019-03-30T13:09:20.588Z,33.65
2019-03-30T13:11:49.124Z,32.28
2019-03-30T13:14:17.594Z,33.87
2019-03-30T13:16:46.120Z,33.57
2019-03-30T13:19:14.661Z,31.60
2019-03-30T13:21:52.502Z,35.52
2019-03-30T13:24:13.631Z,34.83
2019-03-30T13:26:42.182Z,33.88
2019-03-30T13:29:10.714Z,32.85
2019-03-30T13:31:39.608Z,30.37
2019-03-30T13:34:08.153Z,30.00
2019-03-30T13:36:40.737Z,19.17
2019-03-30T13:39:09.653Z,19.40
2019-03-30T13:41:38.321Z,17.12
2019-03-30T13:44:12.613Z,16.05
2019-03-30T13:46:41.286Z,20.55
2019-03-30T13:49:24.587Z,19.73
2019-03-30T13:51:57.874Z,19.57
2019-03-30T13:54:26.368Z,19.02
2019-03-30T13:56:54.969Z,16.37
2019-03-30T13:59:23.484Z,16.85
2019-03-30T14:01:53.241Z,20.02
2019-03-30T14:04:21.844Z,19.25
2019-03-30T14:06:50.358Z,16.65
2019-03-30T14:09:18.893Z,19.05
2019-03-30T14:12:02.089Z,20.82
2019-03-30T14:14:30.653Z,16.50
2019-03-30T14:16:59.191Z,15.67
2019-03-30T14:19:27.722Z,16.73
2019-03-30T14:21:56.225Z,11.87
2019-03-30T14:24:24.755Z,15.00
2019-03-30T14:29:29.165Z,14.23
2019-03-30T14:31:57.674Z,13.67
2019-03-30T14:34:26.169Z,16.10
2019-03-30T14:36:58.783Z,12.73
2019-03-30T14:39:27.329Z,14.20
2019-03-30T14:41:55.881Z,16.27
2019-03-30T14:44:24.454Z,16.02
2019-03-30T14:46:52.917Z,14.83
2019-03-30T14:49:21.445Z,15.60
2019-03-30T14:51:49.951Z,16.82
2019-03-30T14:54:18.492Z,16.62
2019-03-30T14:56:47.036Z,16.93
2019-03-30T14:59:15.623Z,17.05
2019-03-30T15:01:44.256Z,17.12
2019-03-30T15:04:12.840Z,16.52
2019-03-30T15:06:41.333Z,20.12
2019-03-30T15:09:09.797Z,18.80
2019-03-30T15:11:38.261Z,16.17
2019-03-30T15:14:06.761Z,20.40
2019-03-30T15:16:35.309Z,18.00
2019-03-30T15:19:03.914Z,19.52
2019-03-30T15:21:32.485Z,18.95
2019-03-30T15:24:01.021Z,15.88
2019-03-30T15:26:29.489Z,18.10
2019-03-30T15:28:58.060Z,18.10
2019-03-30T15:31:26.618Z,17.95
2019-03-30T15:33:55.145Z,17.65
2019-03-30T15:36:23.681Z,16.82
2019-03-30T15:38:52.183Z,18.75
2019-03-30T15:41:20.720Z,18.37
2019-03-30T15:43:51.990Z,17.82
2019-03-30T15:46:19.561Z,14.20
2019-03-30T15:48:48.028Z,14.50
2019-03-30T15:51:16.669Z,13.07
2019-03-30T15:53:45.140Z,22.52
2019-03-30T15:56:13.600Z,16.37
2019-03-30T15:58:42.119Z,14.03
2019-03-30T16:01:10.801Z,16.50
2019-03-30T16:03:39.438Z,17.92
2019-03-30T16:06:08.915Z,16.60
2019-03-30T16:11:05.342Z,14.23
2019-03-30T16:13:33.926Z,14.98
2019-03-30T16:16:02.457Z,15.70
2019-03-30T16:18:30.978Z,14.83
2019-03-30T16:20:59.525Z,15.65
2019-03-30T16:23:28.124Z,16.60
2019-03-30T16:25:56.621Z,16.50
2019-03-30T16:28:25.168Z,27.40
2019-03-30T16:30:54.830Z,24.72
2019-03-30T16:33:23.381Z,33.00
2019-03-30T16:36:02.707Z,27.85
2019-03-30T16:38:30.419Z,26.35
2019-03-30T16:40:58.940Z,25.70
2019-03-30T16:43:27.457Z,20.15
2019-03-30T16:45:55.929Z,23.77
2019-03-30T16:48:24.417Z,26.30
2019-03-30T16:50:52.993Z,19.52
2019-03-30T16:53:21.536Z,26.27
2019-03-30T16:55:50.075Z,22.62
2019-03-30T16:58:18.700Z,25.80
2019-03-30T17:00:56.235Z,28.07
2019-03-30T17:03:45.889Z,37.00
2019-03-30T17:06:14.355Z,44.98
2019-03-30T17:08:43.000Z,50.98
2019-03-30T17:11:11.464Z,47.07
2019-03-30T17:13:39.938Z,45.00
2019-03-30T17:16:08.454Z,35.17
2019-03-30T17:18:37.000Z,43.02
2019-03-30T17:21:05.539Z,48.00
2019-03-30T17:23:53.491Z,43.48
2019-03-30T17:26:22.028Z,44.73
2019-03-30T17:28:50.567Z,39.95
2019-03-30T17:31:19.250Z,41.92
2019-03-30T17:33:47.791Z,37.57
2019-03-30T17:36:16.272Z,32.67
2019-03-30T17:38:44.846Z,33.25
2019-03-30T17:41:13.477Z,30.65
2019-03-30T17:43:42.084Z,32.00
2019-03-30T17:46:10.652Z,33.15
2019-03-30T17:48:39.251Z,31.60
2019-03-30T17:51:07.734Z,33.55
2019-03-30T17:53:39.327Z,32.00
2019-03-30T17:56:06.693Z,35.80
2019-03-30T17:58:40.586Z,32.70
2019-03-30T18:04:25.189Z,31.68
2019-03-30T18:06:53.692Z,32.55
2019-03-30T18:09:23.810Z,40.90
2019-03-30T18:11:52.424Z,34.25
2019-03-30T18:14:20.921Z,43.23
2019-03-30T18:16:52.589Z,38.63
2019-03-30T18:19:21.420Z,37.98
2019-03-30T18:21:50.010Z,39.63
2019-03-30T18:24:20.357Z,37.33
2019-03-30T18:26:48.984Z,40.65
2019-03-30T18:29:17.505Z,42.67
2019-03-30T18:31:46.138Z,39.27
2019-03-30T18:34:15.825Z,37.67
2019-03-30T18:36:48.179Z,39.70
2019-03-30T18:39:16.807Z,45.30
2019-03-30T18:41:45.510Z,40.57
2019-03-30T18:44:14.324Z,42.58
2019-03-30T18:46:42.794Z,43.55
2019-03-30T18:49:11.264Z,40.75
2019-03-30T18:51:42.580Z,52.20
2019-03-30T18:54:11.656Z,50.95
2019-03-30T18:56:41.105Z,55.50
2019-03-30T18:59:09.777Z,54.73
2019-03-30T19:01:38.243Z,48.65
2019-03-30T19:04:06.715Z,46.88
2019-03-30T19:06:35.351Z,48.63
2019-03-30T19:09:05.684Z,49.75
2019-03-30T19:11:39.306Z,48.38
2019-03-30T19:14:35.811Z,49.85
2019-03-30T19:17:06.064Z,48.38
2019-03-30T19:19:34.630Z,54.53
2019-03-30T19:22:22.506Z,48.63
2019-03-30T19:24:51.054Z,49.98
2019-03-30T19:27:19.620Z,49.63
2019-03-30T19:29:57.651Z,56.10
2019-03-30T19:32:21.054Z,52.20
2019-03-30T19:34:56.201Z,47.83
2019-03-30T19:37:28.268Z,63.20
2019-03-30T19:39:56.816Z,49.73
2019-03-30T19:42:25.355Z,49.80
2019-03-30T19:44:53.914Z,51.00
2019-03-30T19:47:22.549Z,68.15
2019-03-30T19:49:59.111Z,79.03
2019-03-30T19:52:39.301Z,74.30
2019-03-30T19:54:57.899Z,82.53
2019-03-30T19:57:27.866Z,85.00
2019-03-30T20:00:01.653Z,100.53
2019-03-30T20:02:30.195Z,106.50
2019-03-30T20:04:59.130Z,96.80
2019-03-30T20:07:27.673Z,87.97
2019-03-30T20:09:56.203Z,77.67
2019-03-30T20:12:25.382Z,79.50
2019-03-30T20:14:56.289Z,87.22
2019-03-30T20:17:24.813Z,77.22
2019-03-30T20:19:53.349Z,75.05
2019-03-30T20:25:07.746Z,80.83
2019-03-30T20:27:40.053Z,119.22
2019-03-30T20:30:11.983Z,113.10
2019-03-30T20:32:43.185Z,116.47
2019-03-30T20:35:10.872Z,113.37
2019-03-30T20:37:39.482Z,120.95
2019-03-30T20:40:10.561Z,104.90
2019-03-30T20:42:57.123Z,114.55
2019-03-30T20:45:34.686Z,116.65
2019-03-30T20:48:06.086Z,95.80
2019-03-30T20:50:34.686Z,115.88
2019-03-30T20:53:04.706Z,128.57
2019-03-30T20:58:11.863Z,169.07
2019-03-30T21:00:48.409Z,184.55
2019-03-30T21:03:18.597Z,173.00
2019-03-30T21:05:51.462Z,167.32
2019-03-30T21:08:23.435Z,167.62
2019-03-30T21:10:54.820Z,165.10
2019-03-30T21:16:22.333Z,166.77
2019-03-30T21:18:53.672Z,163.82
2019-03-30T21:21:27.272Z,157.03
2019-03-30T21:24:29.117Z,153.35
2019-03-30T21:27:03.338Z,155.30
2019-03-30T21:32:11.582Z,154.23
2019-03-30T21:34:47.321Z,161.45
2019-03-30T21:37:15.938Z,156.20
2019-03-30T21:39:44.625Z,151.07
2019-03-30T21:42:16.593Z,155.15
2019-03-30T21:59:27.389Z,143.55
2019-03-30T22:01:57.814Z,139.03
2019-03-30T22:04:31.209Z,134.72
2019-03-30T22:06:59.814Z,142.28
2019-03-30T22:09:29.488Z,138.50
2019-03-30T22:11:58.268Z,153.30
2019-03-30T22:14:27.575Z,157.07
2019-03-30T22:16:56.038Z,152.10
2019-03-30T22:19:31.271Z,162.72
2019-03-30T22:22:21.476Z,148.78
2019-03-30T22:30:45.256Z,142.37
2019-03-30T22:33:14.374Z,145.10
2019-03-30T22:35:45.161Z,134.25
2019-03-30T22:38:14.166Z,138.32
2019-03-30T22:40:42.945Z,134.65
2019-03-30T22:43:11.585Z,144.13
2019-03-30T22:45:40.188Z,135.60
2019-03-30T22:48:08.875Z,138.07
2019-03-30T22:50:38.613Z,137.82
2019-03-30T22:55:34.804Z,121.47
2019-03-30T22:58:03.352Z,123.40
2019-03-30T23:03:08.804Z,124.25
2019-03-30T23:05:37.434Z,128.10
2019-03-30T23:08:06.068Z,121.72
2019-03-30T23:10:34.815Z,126.05
2019-03-30T23:13:03.528Z,115.70
2019-03-30T23:15:35.137Z,113.03
2019-03-30T23:18:03.899Z,113.55
2019-03-30T23:20:32.525Z,106.00
2019-03-30T23:23:01.207Z,107.95
2019-03-30T23:28:02.106Z,105.35
2019-03-30T23:30:33.720Z,109.80
2019-03-30T23:33:02.338Z,103.38
2019-03-30T23:35:30.936Z,101.78
2019-03-30T23:37:59.545Z,105.32
2019-03-30T23:40:29.706Z,102.02
2019-03-30T23:42:58.368Z,103.30
2019-03-30T23:45:27.040Z,101.38
2019-03-30T23:47:55.592Z,102.78
2019-03-30T23:50:24.161Z,100.50
2019-03-30T23:52:52.628Z,101.80
2019-03-30T23:55:21.089Z,104.43
2019-03-30T23:57:49.597Z,114.08
